Joanesia, Brazil
Current Conditions -  °F | °C
As of 9:00 AM on Monday 22 Dec 2014 (Local Time) from SBLS Reporting Station
Broken Clouds Broken Clouds  
Wind Chill: 72°   Ceiling: 400
Heat Index: 72°   Visibility: 4mi
Dew Point: 68°   Wind: 2mph
Humidity: 88%   Direction: 40°NE
Pressure: 30.09"   Gusts: NA
Location:  19.17°S, 42.68°W
Report Text: SBLS 221100Z 04002KT 6000 BKN004 BKN015 BKN070 22/20 Q1019
Loading
Personal Weather Stations






























Interactive Weather Map New forecast layout! Learn more

10-Day Weather Forecast

Advertisements
Track Severe Weather on mobile